sensor_id;sensor_type;location;lat;lon;timestamp;P1;durP1;ratioP1;P2;durP2;ratioP2
14088;SDS011;7120;52.890;6.040;2022-11-20T00:00:57;20.33;;;13.97;;
14088;SDS011;7120;52.890;6.040;2022-11-20T00:03:28;20.97;;;14.53;;
14088;SDS011;7120;52.890;6.040;2022-11-20T00:05:54;20.80;;;15.33;;
14088;SDS011;7120;52.890;6.040;2022-11-20T00:08:24;28.07;;;18.60;;
14088;SDS011;7120;52.890;6.040;2022-11-20T00:10:50;26.23;;;16.90;;
14088;SDS011;7120;52.890;6.040;2022-11-20T00:13:15;25.87;;;16.60;;
14088;SDS011;7120;52.890;6.040;2022-11-20T00:15:40;26.83;;;17.57;;
14088;SDS011;7120;52.890;6.040;2022-11-20T00:18:06;25.67;;;16.50;;
14088;SDS011;7120;52.890;6.040;2022-11-20T00:20:31;22.83;;;15.37;;
14088;SDS011;7120;52.890;6.040;2022-11-20T00:22:56;26.90;;;16.97;;
14088;SDS011;7120;52.890;6.040;2022-11-20T00:25:22;21.23;;;14.97;;
14088;SDS011;7120;52.890;6.040;2022-11-20T00:27:47;21.27;;;14.80;;
14088;SDS011;7120;52.890;6.040;2022-11-20T00:30:12;22.67;;;15.73;;
14088;SDS011;7120;52.890;6.040;2022-11-20T00:32:38;20.20;;;14.87;;
14088;SDS011;7120;52.890;6.040;2022-11-20T00:35:03;22.63;;;16.47;;
14088;SDS011;7120;52.890;6.040;2022-11-20T00:37:29;22.80;;;15.60;;
14088;SDS011;7120;52.890;6.040;2022-11-20T00:39:54;22.13;;;16.20;;
14088;SDS011;7120;52.890;6.040;2022-11-20T00:42:20;19.63;;;13.93;;
14088;SDS011;7120;52.890;6.040;2022-11-20T00:44:45;19.20;;;13.90;;
14088;SDS011;7120;52.890;6.040;2022-11-20T00:47:10;19.53;;;12.87;;
14088;SDS011;7120;52.890;6.040;2022-11-20T00:49:35;19.23;;;14.10;;
14088;SDS011;7120;52.890;6.040;2022-11-20T00:52:01;19.20;;;14.17;;
14088;SDS011;7120;52.890;6.040;2022-11-20T00:54:26;20.07;;;14.87;;
14088;SDS011;7120;52.890;6.040;2022-11-20T00:56:54;20.50;;;14.93;;
14088;SDS011;7120;52.890;6.040;2022-11-20T00:59:20;21.13;;;14.60;;
14088;SDS011;7120;52.890;6.040;2022-11-20T01:01:45;24.53;;;16.77;;
14088;SDS011;7120;52.890;6.040;2022-11-20T01:04:10;24.80;;;17.50;;
14088;SDS011;7120;52.890;6.040;2022-11-20T01:06:37;23.93;;;17.77;;
14088;SDS011;7120;52.890;6.040;2022-11-20T01:09:10;28.00;;;18.03;;
14088;SDS011;7120;52.890;6.040;2022-11-20T01:11:38;27.70;;;19.20;;
14088;SDS011;7120;52.890;6.040;2022-11-20T01:14:07;26.20;;;18.27;;
14088;SDS011;7120;52.890;6.040;2022-11-20T01:16:37;29.37;;;18.37;;
14088;SDS011;7120;52.890;6.040;2022-11-20T01:19:04;26.50;;;18.30;;
14088;SDS011;7120;52.890;6.040;2022-11-20T01:21:33;21.90;;;16.27;;
14088;SDS011;7120;52.890;6.040;2022-11-20T01:24:01;26.37;;;18.37;;
14088;SDS011;7120;52.890;6.040;2022-11-20T01:26:28;28.40;;;17.67;;
14088;SDS011;7120;52.890;6.040;2022-11-20T01:28:55;22.40;;;15.53;;
14088;SDS011;7120;52.890;6.040;2022-11-20T01:31:22;23.73;;;17.07;;
14088;SDS011;7120;52.890;6.040;2022-11-20T01:33:51;21.97;;;16.10;;
14088;SDS011;7120;52.890;6.040;2022-11-20T01:36:19;22.93;;;15.50;;
14088;SDS011;7120;52.890;6.040;2022-11-20T01:38:47;22.87;;;15.70;;
14088;SDS011;7120;52.890;6.040;2022-11-20T01:41:13;25.57;;;16.47;;
14088;SDS011;7120;52.890;6.040;2022-11-20T01:44:00;31.90;;;20.60;;
14088;SDS011;7120;52.890;6.040;2022-11-20T01:46:26;29.63;;;18.20;;
14088;SDS011;7120;52.890;6.040;2022-11-20T01:49:07;27.20;;;17.30;;
14088;SDS011;7120;52.890;6.040;2022-11-20T01:51:49;27.43;;;17.97;;
14088;SDS011;7120;52.890;6.040;2022-11-20T01:54:25;28.30;;;17.47;;
14088;SDS011;7120;52.890;6.040;2022-11-20T01:56:56;25.53;;;16.07;;
14088;SDS011;7120;52.890;6.040;2022-11-20T01:59:24;24.73;;;15.10;;
14088;SDS011;7120;52.890;6.040;2022-11-20T02:01:53;21.73;;;15.67;;
14088;SDS011;7120;52.890;6.040;2022-11-20T02:04:20;25.43;;;16.87;;
14088;SDS011;7120;52.890;6.040;2022-11-20T02:06:49;22.87;;;15.70;;
14088;SDS011;7120;52.890;6.040;2022-11-20T02:09:20;23.83;;;15.63;;
14088;SDS011;7120;52.890;6.040;2022-11-20T02:11:45;22.60;;;15.33;;
14088;SDS011;7120;52.890;6.040;2022-11-20T02:14:13;21.97;;;15.50;;
14088;SDS011;7120;52.890;6.040;2022-11-20T02:16:41;22.23;;;15.13;;
14088;SDS011;7120;52.890;6.040;2022-11-20T02:19:16;23.23;;;14.67;;
14088;SDS011;7120;52.890;6.040;2022-11-20T02:24:35;21.40;;;14.73;;
14088;SDS011;7120;52.890;6.040;2022-11-20T02:27:05;21.00;;;13.87;;
14088;SDS011;7120;52.890;6.040;2022-11-20T02:29:37;21.00;;;14.73;;
14088;SDS011;7120;52.890;6.040;2022-11-20T02:32:17;20.23;;;14.03;;
14088;SDS011;7120;52.890;6.040;2022-11-20T02:34:52;22.00;;;14.23;;
14088;SDS011;7120;52.890;6.040;2022-11-20T02:37:18;19.13;;;14.50;;
14088;SDS011;7120;52.890;6.040;2022-11-20T02:39:49;20.13;;;14.93;;
14088;SDS011;7120;52.890;6.040;2022-11-20T02:42:16;22.67;;;15.00;;
14088;SDS011;7120;52.890;6.040;2022-11-20T02:44:42;20.17;;;14.40;;
14088;SDS011;7120;52.890;6.040;2022-11-20T02:47:07;21.53;;;14.27;;
14088;SDS011;7120;52.890;6.040;2022-11-20T02:49:33;22.70;;;14.83;;
14088;SDS011;7120;52.890;6.040;2022-11-20T02:51:58;19.63;;;15.10;;
14088;SDS011;7120;52.890;6.040;2022-11-20T02:54:25;23.67;;;15.93;;
14088;SDS011;7120;52.890;6.040;2022-11-20T02:56:50;19.77;;;15.10;;
14088;SDS011;7120;52.890;6.040;2022-11-20T02:59:15;20.73;;;14.50;;
14088;SDS011;7120;52.890;6.040;2022-11-20T03:01:41;21.57;;;14.90;;
14088;SDS011;7120;52.890;6.040;2022-11-20T03:04:08;19.83;;;15.00;;
14088;SDS011;7120;52.890;6.040;2022-11-20T03:06:33;23.97;;;15.93;;
14088;SDS011;7120;52.890;6.040;2022-11-20T03:08:59;22.27;;;15.37;;
14088;SDS011;7120;52.890;6.040;2022-11-20T03:11:24;18.10;;;14.60;;
14088;SDS011;7120;52.890;6.040;2022-11-20T03:13:51;22.70;;;16.30;;
14088;SDS011;7120;52.890;6.040;2022-11-20T03:16:17;23.20;;;15.83;;
14088;SDS011;7120;52.890;6.040;2022-11-20T03:18:44;20.10;;;15.23;;
14088;SDS011;7120;52.890;6.040;2022-11-20T03:21:11;20.77;;;15.00;;
14088;SDS011;7120;52.890;6.040;2022-11-20T03:23:38;20.77;;;14.87;;
14088;SDS011;7120;52.890;6.040;2022-11-20T03:26:23;23.90;;;16.57;;
14088;SDS011;7120;52.890;6.040;2022-11-20T03:28:50;24.40;;;16.07;;
14088;SDS011;7120;52.890;6.040;2022-11-20T03:31:19;22.13;;;15.20;;
14088;SDS011;7120;52.890;6.040;2022-11-20T03:33:45;22.37;;;16.43;;
14088;SDS011;7120;52.890;6.040;2022-11-20T03:36:12;22.20;;;15.43;;
14088;SDS011;7120;52.890;6.040;2022-11-20T03:38:39;21.57;;;15.70;;
14088;SDS011;7120;52.890;6.040;2022-11-20T03:41:06;24.77;;;16.53;;
14088;SDS011;7120;52.890;6.040;2022-11-20T03:43:36;23.03;;;16.93;;
14088;SDS011;7120;52.890;6.040;2022-11-20T03:46:02;25.03;;;15.93;;
14088;SDS011;7120;52.890;6.040;2022-11-20T03:48:29;23.03;;;16.10;;
14088;SDS011;7120;52.890;6.040;2022-11-20T03:51:11;25.60;;;15.47;;
14088;SDS011;7120;52.890;6.040;2022-11-20T03:53:42;20.50;;;15.57;;
14088;SDS011;7120;52.890;6.040;2022-11-20T03:56:09;23.00;;;15.23;;
14088;SDS011;7120;52.890;6.040;2022-11-20T03:58:36;21.73;;;14.97;;
14088;SDS011;7120;52.890;6.040;2022-11-20T04:01:08;18.80;;;14.20;;
14088;SDS011;7120;52.890;6.040;2022-11-20T04:03:39;18.37;;;14.53;;
14088;SDS011;7120;52.890;6.040;2022-11-20T04:06:06;19.70;;;14.27;;
14088;SDS011;7120;52.890;6.040;2022-11-20T04:08:34;21.20;;;14.93;;
14088;SDS011;7120;52.890;6.040;2022-11-20T04:11:16;17.67;;;13.37;;
14088;SDS011;7120;52.890;6.040;2022-11-20T04:13:52;19.47;;;14.00;;
14088;SDS011;7120;52.890;6.040;2022-11-20T04:16:22;21.27;;;14.37;;
14088;SDS011;7120;52.890;6.040;2022-11-20T04:18:52;19.60;;;13.80;;
14088;SDS011;7120;52.890;6.040;2022-11-20T04:21:18;17.00;;;14.20;;
14088;SDS011;7120;52.890;6.040;2022-11-20T04:23:44;19.40;;;13.43;;
14088;SDS011;7120;52.890;6.040;2022-11-20T04:26:11;18.07;;;13.73;;
14088;SDS011;7120;52.890;6.040;2022-11-20T04:28:37;16.67;;;12.03;;
14088;SDS011;7120;52.890;6.040;2022-11-20T04:31:06;18.60;;;13.43;;
14088;SDS011;7120;52.890;6.040;2022-11-20T04:33:33;18.67;;;13.50;;
14088;SDS011;7120;52.890;6.040;2022-11-20T04:36:21;18.50;;;13.60;;
14088;SDS011;7120;52.890;6.040;2022-11-20T04:38:52;18.33;;;12.67;;
14088;SDS011;7120;52.890;6.040;2022-11-20T04:41:22;18.53;;;13.17;;
14088;SDS011;7120;52.890;6.040;2022-11-20T04:43:49;17.33;;;13.13;;
14088;SDS011;7120;52.890;6.040;2022-11-20T04:46:16;19.87;;;14.53;;
14088;SDS011;7120;52.890;6.040;2022-11-20T04:48:43;19.00;;;13.40;;
14088;SDS011;7120;52.890;6.040;2022-11-20T04:51:08;17.20;;;13.17;;
14088;SDS011;7120;52.890;6.040;2022-11-20T04:53:33;23.53;;;15.63;;
14088;SDS011;7120;52.890;6.040;2022-11-20T04:56:02;20.93;;;13.67;;
14088;SDS011;7120;52.890;6.040;2022-11-20T04:58:29;20.43;;;14.40;;
14088;SDS011;7120;52.890;6.040;2022-11-20T05:01:05;19.70;;;14.27;;
14088;SDS011;7120;52.890;6.040;2022-11-20T05:03:32;21.23;;;15.10;;
14088;SDS011;7120;52.890;6.040;2022-11-20T05:06:01;19.77;;;13.93;;
14088;SDS011;7120;52.890;6.040;2022-11-20T05:08:31;21.47;;;14.57;;
14088;SDS011;7120;52.890;6.040;2022-11-20T05:11:03;16.53;;;12.93;;
14088;SDS011;7120;52.890;6.040;2022-11-20T05:13:32;18.93;;;13.30;;
14088;SDS011;7120;52.890;6.040;2022-11-20T05:16:01;18.20;;;13.13;;
14088;SDS011;7120;52.890;6.040;2022-11-20T05:18:34;16.97;;;12.97;;
14088;SDS011;7120;52.890;6.040;2022-11-20T05:21:00;19.50;;;13.37;;
14088;SDS011;7120;52.890;6.040;2022-11-20T05:23:25;17.73;;;12.60;;
14088;SDS011;7120;52.890;6.040;2022-11-20T05:25:52;14.67;;;11.77;;
14088;SDS011;7120;52.890;6.040;2022-11-20T05:28:18;17.17;;;12.33;;
14088;SDS011;7120;52.890;6.040;2022-11-20T05:30:44;16.73;;;12.03;;
14088;SDS011;7120;52.890;6.040;2022-11-20T05:33:09;18.67;;;12.10;;
14088;SDS011;7120;52.890;6.040;2022-11-20T05:35:34;18.67;;;13.00;;
14088;SDS011;7120;52.890;6.040;2022-11-20T05:37:59;17.23;;;11.60;;
14088;SDS011;7120;52.890;6.040;2022-11-20T05:40:25;18.00;;;11.50;;
14088;SDS011;7120;52.890;6.040;2022-11-20T05:42:50;15.67;;;12.03;;
14088;SDS011;7120;52.890;6.040;2022-11-20T05:45:16;17.27;;;11.73;;
14088;SDS011;7120;52.890;6.040;2022-11-20T05:47:41;16.17;;;11.33;;
14088;SDS011;7120;52.890;6.040;2022-11-20T05:50:06;16.07;;;11.57;;
14088;SDS011;7120;52.890;6.040;2022-11-20T05:52:34;15.87;;;12.03;;
14088;SDS011;7120;52.890;6.040;2022-11-20T05:54:59;17.30;;;11.87;;
14088;SDS011;7120;52.890;6.040;2022-11-20T05:57:25;17.60;;;12.13;;
14088;SDS011;7120;52.890;6.040;2022-11-20T05:59:50;18.27;;;12.20;;
14088;SDS011;7120;52.890;6.040;2022-11-20T06:04:44;18.93;;;12.53;;
14088;SDS011;7120;52.890;6.040;2022-11-20T06:07:09;18.60;;;12.87;;
14088;SDS011;7120;52.890;6.040;2022-11-20T06:09:35;16.70;;;11.77;;
14088;SDS011;7120;52.890;6.040;2022-11-20T06:12:00;16.73;;;12.57;;
14088;SDS011;7120;52.890;6.040;2022-11-20T06:16:56;15.93;;;11.43;;
14088;SDS011;7120;52.890;6.040;2022-11-20T06:19:21;22.13;;;17.77;;
14088;SDS011;7120;52.890;6.040;2022-11-20T06:21:47;27.33;;;18.27;;
14088;SDS011;7120;52.890;6.040;2022-11-20T06:24:14;23.43;;;15.60;;
14088;SDS011;7120;52.890;6.040;2022-11-20T06:26:41;21.17;;;14.60;;
14088;SDS011;7120;52.890;6.040;2022-11-20T06:29:07;21.63;;;13.97;;
14088;SDS011;7120;52.890;6.040;2022-11-20T06:31:32;20.17;;;14.00;;
14088;SDS011;7120;52.890;6.040;2022-11-20T06:34:00;20.17;;;13.70;;
14088;SDS011;7120;52.890;6.040;2022-11-20T06:36:26;17.30;;;12.67;;
14088;SDS011;7120;52.890;6.040;2022-11-20T06:38:51;19.47;;;13.87;;
14088;SDS011;7120;52.890;6.040;2022-11-20T06:41:18;20.70;;;14.30;;
14088;SDS011;7120;52.890;6.040;2022-11-20T06:43:45;21.47;;;15.60;;
14088;SDS011;7120;52.890;6.040;2022-11-20T06:46:11;18.73;;;14.43;;
14088;SDS011;7120;52.890;6.040;2022-11-20T06:48:37;20.03;;;14.30;;
14088;SDS011;7120;52.890;6.040;2022-11-20T06:51:03;21.87;;;14.23;;
14088;SDS011;7120;52.890;6.040;2022-11-20T06:53:30;16.77;;;13.07;;
14088;SDS011;7120;52.890;6.040;2022-11-20T06:55:56;21.67;;;13.87;;
14088;SDS011;7120;52.890;6.040;2022-11-20T06:58:28;17.87;;;13.10;;
14088;SDS011;7120;52.890;6.040;2022-11-20T07:00:58;18.67;;;14.13;;
14088;SDS011;7120;52.890;6.040;2022-11-20T07:03:43;22.50;;;14.00;;
14088;SDS011;7120;52.890;6.040;2022-11-20T07:06:09;18.77;;;12.63;;
14088;SDS011;7120;52.890;6.040;2022-11-20T07:08:34;20.07;;;13.67;;
14088;SDS011;7120;52.890;6.040;2022-11-20T07:11:01;19.97;;;13.77;;
14088;SDS011;7120;52.890;6.040;2022-11-20T07:13:30;19.43;;;13.63;;
14088;SDS011;7120;52.890;6.040;2022-11-20T07:15:59;19.73;;;13.47;;
14088;SDS011;7120;52.890;6.040;2022-11-20T07:18:26;17.20;;;13.50;;
14088;SDS011;7120;52.890;6.040;2022-11-20T07:20:52;17.50;;;13.57;;
14088;SDS011;7120;52.890;6.040;2022-11-20T07:23:22;19.87;;;14.33;;
14088;SDS011;7120;52.890;6.040;2022-11-20T07:25:47;17.53;;;14.07;;
14088;SDS011;7120;52.890;6.040;2022-11-20T07:28:12;18.20;;;14.57;;
14088;SDS011;7120;52.890;6.040;2022-11-20T07:30:38;17.77;;;13.80;;
14088;SDS011;7120;52.890;6.040;2022-11-20T07:33:05;17.30;;;13.57;;
14088;SDS011;7120;52.890;6.040;2022-11-20T07:35:30;18.43;;;14.13;;
14088;SDS011;7120;52.890;6.040;2022-11-20T07:37:55;18.00;;;13.93;;
14088;SDS011;7120;52.890;6.040;2022-11-20T07:40:20;12.87;;;7.67;;
14088;SDS011;7120;52.890;6.040;2022-11-20T07:42:50;11.37;;;7.67;;
14088;SDS011;7120;52.890;6.040;2022-11-20T07:45:18;10.83;;;6.50;;
14088;SDS011;7120;52.890;6.040;2022-11-20T07:47:44;11.43;;;7.07;;
14088;SDS011;7120;52.890;6.040;2022-11-20T07:50:10;10.97;;;6.40;;
14088;SDS011;7120;52.890;6.040;2022-11-20T07:52:37;9.93;;;6.63;;
14088;SDS011;7120;52.890;6.040;2022-11-20T07:55:02;10.33;;;6.60;;
14088;SDS011;7120;52.890;6.040;2022-11-20T07:57:28;11.37;;;7.03;;
14088;SDS011;7120;52.890;6.040;2022-11-20T07:59:53;11.77;;;6.90;;
14088;SDS011;7120;52.890;6.040;2022-11-20T08:02:20;11.10;;;6.77;;
14088;SDS011;7120;52.890;6.040;2022-11-20T08:04:46;8.30;;;6.23;;
14088;SDS011;7120;52.890;6.040;2022-11-20T08:07:11;10.30;;;7.00;;
14088;SDS011;7120;52.890;6.040;2022-11-20T08:09:36;11.63;;;7.57;;
14088;SDS011;7120;52.890;6.040;2022-11-20T08:12:01;11.30;;;7.37;;
14088;SDS011;7120;52.890;6.040;2022-11-20T08:14:45;12.47;;;7.30;;
14088;SDS011;7120;52.890;6.040;2022-11-20T08:17:11;11.07;;;7.07;;
14088;SDS011;7120;52.890;6.040;2022-11-20T08:19:37;10.47;;;7.10;;
14088;SDS011;7120;52.890;6.040;2022-11-20T08:22:02;11.73;;;7.33;;
14088;SDS011;7120;52.890;6.040;2022-11-20T08:24:27;11.53;;;7.97;;
14088;SDS011;7120;52.890;6.040;2022-11-20T08:26:53;12.90;;;7.73;;
14088;SDS011;7120;52.890;6.040;2022-11-20T08:29:18;12.47;;;7.67;;
14088;SDS011;7120;52.890;6.040;2022-11-20T08:31:43;12.60;;;8.37;;
14088;SDS011;7120;52.890;6.040;2022-11-20T08:34:09;11.93;;;7.17;;
14088;SDS011;7120;52.890;6.040;2022-11-20T08:36:34;11.23;;;7.13;;
14088;SDS011;7120;52.890;6.040;2022-11-20T08:39:00;10.67;;;7.73;;
14088;SDS011;7120;52.890;6.040;2022-11-20T08:41:26;11.17;;;8.03;;
14088;SDS011;7120;52.890;6.040;2022-11-20T08:44:01;18.50;;;11.43;;
14088;SDS011;7120;52.890;6.040;2022-11-20T08:46:32;17.67;;;9.67;;
14088;SDS011;7120;52.890;6.040;2022-11-20T08:49:06;15.87;;;8.60;;
14088;SDS011;7120;52.890;6.040;2022-11-20T08:51:35;14.57;;;7.93;;
14088;SDS011;7120;52.890;6.040;2022-11-20T08:54:02;14.00;;;8.87;;
14088;SDS011;7120;52.890;6.040;2022-11-20T08:56:27;14.57;;;9.03;;
14088;SDS011;7120;52.890;6.040;2022-11-20T08:58:53;13.60;;;8.00;;
14088;SDS011;7120;52.890;6.040;2022-11-20T09:01:19;12.57;;;7.20;;
14088;SDS011;7120;52.890;6.040;2022-11-20T09:03:46;11.00;;;7.13;;
14088;SDS011;7120;52.890;6.040;2022-11-20T09:06:11;14.03;;;8.37;;
14088;SDS011;7120;52.890;6.040;2022-11-20T09:08:37;12.30;;;6.87;;
14088;SDS011;7120;52.890;6.040;2022-11-20T09:11:03;11.70;;;6.47;;
14088;SDS011;7120;52.890;6.040;2022-11-20T09:13:30;14.20;;;8.43;;
14088;SDS011;7120;52.890;6.040;2022-11-20T09:15:58;11.07;;;7.30;;
14088;SDS011;7120;52.890;6.040;2022-11-20T09:18:26;11.70;;;8.03;;
14088;SDS011;7120;52.890;6.040;2022-11-20T09:20:55;9.50;;;6.67;;
14088;SDS011;7120;52.890;6.040;2022-11-20T09:23:22;13.13;;;8.10;;
14088;SDS011;7120;52.890;6.040;2022-11-20T09:25:47;12.37;;;8.00;;
14088;SDS011;7120;52.890;6.040;2022-11-20T09:28:12;9.43;;;6.43;;
14088;SDS011;7120;52.890;6.040;2022-11-20T09:30:38;11.60;;;7.27;;
14088;SDS011;7120;52.890;6.040;2022-11-20T09:33:04;10.27;;;7.37;;
14088;SDS011;7120;52.890;6.040;2022-11-20T09:35:30;14.80;;;8.23;;
14088;SDS011;7120;52.890;6.040;2022-11-20T09:37:55;12.23;;;6.77;;
14088;SDS011;7120;52.890;6.040;2022-11-20T09:40:22;11.53;;;7.70;;
14088;SDS011;7120;52.890;6.040;2022-11-20T09:45:31;11.50;;;7.50;;
14088;SDS011;7120;52.890;6.040;2022-11-20T09:53:57;12.73;;;7.57;;
14088;SDS011;7120;52.890;6.040;2022-11-20T09:56:29;16.97;;;8.07;;
14088;SDS011;7120;52.890;6.040;2022-11-20T09:58:57;11.37;;;8.20;;
14088;SDS011;7120;52.890;6.040;2022-11-20T10:01:26;13.03;;;8.33;;
14088;SDS011;7120;52.890;6.040;2022-11-20T10:03:57;13.20;;;9.20;;
14088;SDS011;7120;52.890;6.040;2022-11-20T10:06:31;12.37;;;8.97;;
14088;SDS011;7120;52.890;6.040;2022-11-20T10:14:23;12.97;;;8.77;;
14088;SDS011;7120;52.890;6.040;2022-11-20T10:24:42;10.50;;;8.63;;
14088;SDS011;7120;52.890;6.040;2022-11-20T10:27:15;13.53;;;8.87;;
14088;SDS011;7120;52.890;6.040;2022-11-20T10:32:45;12.17;;;8.70;;
14088;SDS011;7120;52.890;6.040;2022-11-20T10:35:18;12.27;;;9.50;;
14088;SDS011;7120;52.890;6.040;2022-11-20T10:37:55;12.27;;;8.60;;
14088;SDS011;7120;52.890;6.040;2022-11-20T10:40:38;14.47;;;7.83;;
14088;SDS011;7120;52.890;6.040;2022-11-20T10:43:19;10.63;;;7.23;;
14088;SDS011;7120;52.890;6.040;2022-11-20T10:45:52;10.63;;;7.77;;
14088;SDS011;7120;52.890;6.040;2022-11-20T10:48:24;11.23;;;8.40;;
14088;SDS011;7120;52.890;6.040;2022-11-20T10:50:59;11.03;;;7.23;;
14088;SDS011;7120;52.890;6.040;2022-11-20T10:53:31;8.83;;;6.60;;
14088;SDS011;7120;52.890;6.040;2022-11-20T10:56:08;9.37;;;7.10;;
14088;SDS011;7120;52.890;6.040;2022-11-20T11:01:47;10.03;;;7.17;;
14088;SDS011;7120;52.890;6.040;2022-11-20T11:06:54;8.00;;;6.40;;
14088;SDS011;7120;52.890;6.040;2022-11-20T11:09:33;10.90;;;7.30;;
14088;SDS011;7120;52.890;6.040;2022-11-20T11:12:07;11.17;;;7.13;;
14088;SDS011;7120;52.890;6.040;2022-11-20T11:14:44;14.83;;;7.73;;
14088;SDS011;7120;52.890;6.040;2022-11-20T11:20:05;12.67;;;7.20;;
14088;SDS011;7120;52.890;6.040;2022-11-20T11:22:44;14.03;;;11.60;;
14088;SDS011;7120;52.890;6.040;2022-11-20T11:25:34;17.43;;;11.77;;
14088;SDS011;7120;52.890;6.040;2022-11-20T11:28:04;22.47;;;15.47;;
14088;SDS011;7120;52.890;6.040;2022-11-20T11:30:42;24.97;;;15.37;;
14088;SDS011;7120;52.890;6.040;2022-11-20T11:33:10;17.47;;;13.17;;
14088;SDS011;7120;52.890;6.040;2022-11-20T11:35:47;12.23;;;10.93;;
14088;SDS011;7120;52.890;6.040;2022-11-20T11:38:32;10.80;;;9.23;;
14088;SDS011;7120;52.890;6.040;2022-11-20T11:41:00;11.97;;;10.70;;
14088;SDS011;7120;52.890;6.040;2022-11-20T11:43:28;10.73;;;8.50;;
14088;SDS011;7120;52.890;6.040;2022-11-20T11:51:26;9.90;;;8.90;;
14088;SDS011;7120;52.890;6.040;2022-11-20T11:53:58;10.60;;;8.90;;
14088;SDS011;7120;52.890;6.040;2022-11-20T11:56:24;10.37;;;8.97;;
14088;SDS011;7120;52.890;6.040;2022-11-20T11:58:51;10.97;;;8.93;;
14088;SDS011;7120;52.890;6.040;2022-11-20T12:01:20;10.07;;;9.07;;
14088;SDS011;7120;52.890;6.040;2022-11-20T12:03:55;9.80;;;8.80;;
14088;SDS011;7120;52.890;6.040;2022-11-20T12:06:29;10.20;;;9.07;;
14088;SDS011;7120;52.890;6.040;2022-11-20T12:09:01;11.20;;;9.33;;
14088;SDS011;7120;52.890;6.040;2022-11-20T12:11:31;10.80;;;9.57;;
14088;SDS011;7120;52.890;6.040;2022-11-20T12:16:48;11.47;;;8.27;;
14088;SDS011;7120;52.890;6.040;2022-11-20T12:19:15;9.27;;;8.37;;
14088;SDS011;7120;52.890;6.040;2022-11-20T12:38:04;9.40;;;8.40;;
14088;SDS011;7120;52.890;6.040;2022-11-20T12:41:02;8.93;;;8.00;;
14088;SDS011;7120;52.890;6.040;2022-11-20T12:43:33;10.47;;;9.03;;
14088;SDS011;7120;52.890;6.040;2022-11-20T12:46:47;9.23;;;7.90;;
14088;SDS011;7120;52.890;6.040;2022-11-20T12:49:48;8.57;;;7.67;;
14088;SDS011;7120;52.890;6.040;2022-11-20T12:52:37;9.00;;;8.10;;
14088;SDS011;7120;52.890;6.040;2022-11-20T13:00:23;8.97;;;8.10;;
14088;SDS011;7120;52.890;6.040;2022-11-20T13:05:55;9.10;;;8.20;;
14088;SDS011;7120;52.890;6.040;2022-11-20T13:08:35;9.17;;;8.27;;
14088;SDS011;7120;52.890;6.040;2022-11-20T13:16:27;8.80;;;7.90;;
14088;SDS011;7120;52.890;6.040;2022-11-20T13:18:54;9.33;;;8.43;;
14088;SDS011;7120;52.890;6.040;2022-11-20T13:24:49;9.70;;;8.60;;
14088;SDS011;7120;52.890;6.040;2022-11-20T13:29:32;9.53;;;8.63;;
14088;SDS011;7120;52.890;6.040;2022-11-20T13:34:29;9.87;;;8.53;;
14088;SDS011;7120;52.890;6.040;2022-11-20T13:36:56;10.30;;;9.00;;
14088;SDS011;7120;52.890;6.040;2022-11-20T13:39:29;9.67;;;8.70;;
14088;SDS011;7120;52.890;6.040;2022-11-20T13:41:57;10.50;;;9.00;;
14088;SDS011;7120;52.890;6.040;2022-11-20T13:47:02;10.43;;;8.70;;
14088;SDS011;7120;52.890;6.040;2022-11-20T13:49:30;11.70;;;8.90;;
14088;SDS011;7120;52.890;6.040;2022-11-20T13:52:08;11.43;;;10.17;;
14088;SDS011;7120;52.890;6.040;2022-11-20T14:00:09;11.30;;;9.60;;
14088;SDS011;7120;52.890;6.040;2022-11-20T14:02:47;10.97;;;9.63;;
14088;SDS011;7120;52.890;6.040;2022-11-20T14:05:25;10.37;;;9.27;;
14088;SDS011;7120;52.890;6.040;2022-11-20T14:07:51;11.57;;;9.70;;
14088;SDS011;7120;52.890;6.040;2022-11-20T14:12:50;10.70;;;9.60;;
14088;SDS011;7120;52.890;6.040;2022-11-20T14:15:26;10.70;;;9.60;;
14088;SDS011;7120;52.890;6.040;2022-11-20T14:17:52;12.07;;;9.33;;
14088;SDS011;7120;52.890;6.040;2022-11-20T14:20:17;11.50;;;10.23;;
14088;SDS011;7120;52.890;6.040;2022-11-20T14:22:48;10.60;;;9.50;;
14088;SDS011;7120;52.890;6.040;2022-11-20T14:27:41;11.63;;;9.90;;
14088;SDS011;7120;52.890;6.040;2022-11-20T14:30:25;15.17;;;11.60;;
14088;SDS011;7120;52.890;6.040;2022-11-20T14:33:11;15.30;;;12.20;;
14088;SDS011;7120;52.890;6.040;2022-11-20T14:35:40;18.53;;;13.80;;
14088;SDS011;7120;52.890;6.040;2022-11-20T14:38:11;18.10;;;13.00;;
14088;SDS011;7120;52.890;6.040;2022-11-20T14:40:39;18.30;;;13.93;;
14088;SDS011;7120;52.890;6.040;2022-11-20T14:43:18;20.80;;;15.27;;
14088;SDS011;7120;52.890;6.040;2022-11-20T14:45:49;15.77;;;13.17;;
14088;SDS011;7120;52.890;6.040;2022-11-20T14:48:19;12.37;;;10.80;;
14088;SDS011;7120;52.890;6.040;2022-11-20T14:50:50;13.20;;;11.17;;
14088;SDS011;7120;52.890;6.040;2022-11-20T14:53:21;12.43;;;11.13;;
14088;SDS011;7120;52.890;6.040;2022-11-20T14:55:54;14.27;;;12.37;;
14088;SDS011;7120;52.890;6.040;2022-11-20T14:58:22;18.93;;;12.37;;
14088;SDS011;7120;52.890;6.040;2022-11-20T15:01:12;198.23;;;27.00;;
14088;SDS011;7120;52.890;6.040;2022-11-20T15:03:39;62.47;;;16.90;;
14088;SDS011;7120;52.890;6.040;2022-11-20T15:06:11;12.23;;;10.90;;
14088;SDS011;7120;52.890;6.040;2022-11-20T15:08:37;12.77;;;10.83;;
14088;SDS011;7120;52.890;6.040;2022-11-20T15:11:03;13.60;;;12.17;;
14088;SDS011;7120;52.890;6.040;2022-11-20T15:13:33;13.83;;;12.20;;
14088;SDS011;7120;52.890;6.040;2022-11-20T15:16:02;14.30;;;12.67;;
14088;SDS011;7120;52.890;6.040;2022-11-20T15:18:32;14.17;;;11.93;;
14088;SDS011;7120;52.890;6.040;2022-11-20T15:21:04;13.60;;;12.20;;
14088;SDS011;7120;52.890;6.040;2022-11-20T15:23:38;12.37;;;11.07;;
14088;SDS011;7120;52.890;6.040;2022-11-20T15:26:07;13.73;;;12.03;;
14088;SDS011;7120;52.890;6.040;2022-11-20T15:28:34;14.60;;;11.73;;
14088;SDS011;7120;52.890;6.040;2022-11-20T15:31:04;14.37;;;11.50;;
14088;SDS011;7120;52.890;6.040;2022-11-20T15:33:30;10.97;;;8.27;;
14088;SDS011;7120;52.890;6.040;2022-11-20T15:35:56;12.13;;;10.40;;
14088;SDS011;7120;52.890;6.040;2022-11-20T15:38:22;14.03;;;11.93;;
14088;SDS011;7120;52.890;6.040;2022-11-20T15:40:48;13.33;;;11.17;;
14088;SDS011;7120;52.890;6.040;2022-11-20T15:43:13;12.80;;;11.03;;
14088;SDS011;7120;52.890;6.040;2022-11-20T15:48:14;13.10;;;11.50;;
14088;SDS011;7120;52.890;6.040;2022-11-20T15:51:29;12.87;;;11.50;;
14088;SDS011;7120;52.890;6.040;2022-11-20T15:53:40;13.67;;;11.70;;
14088;SDS011;7120;52.890;6.040;2022-11-20T15:56:12;12.90;;;11.60;;
14088;SDS011;7120;52.890;6.040;2022-11-20T15:58:39;12.93;;;11.63;;
14088;SDS011;7120;52.890;6.040;2022-11-20T16:01:05;13.93;;;12.33;;
14088;SDS011;7120;52.890;6.040;2022-11-20T16:03:30;13.90;;;12.40;;
14088;SDS011;7120;52.890;6.040;2022-11-20T16:05:56;13.40;;;11.37;;
14088;SDS011;7120;52.890;6.040;2022-11-20T16:08:21;13.57;;;11.70;;
14088;SDS011;7120;52.890;6.040;2022-11-20T16:10:46;14.33;;;12.10;;
14088;SDS011;7120;52.890;6.040;2022-11-20T16:13:16;16.57;;;14.07;;
14088;SDS011;7120;52.890;6.040;2022-11-20T16:16:06;21.90;;;15.70;;
14088;SDS011;7120;52.890;6.040;2022-11-20T16:18:35;23.10;;;16.13;;
14088;SDS011;7120;52.890;6.040;2022-11-20T16:21:01;25.43;;;18.13;;
14088;SDS011;7120;52.890;6.040;2022-11-20T16:23:27;32.43;;;20.17;;
14088;SDS011;7120;52.890;6.040;2022-11-20T16:25:53;35.17;;;20.20;;
14088;SDS011;7120;52.890;6.040;2022-11-20T16:28:18;54.57;;;26.97;;
14088;SDS011;7120;52.890;6.040;2022-11-20T16:30:44;45.50;;;25.13;;
14088;SDS011;7120;52.890;6.040;2022-11-20T16:33:11;38.83;;;23.80;;
14088;SDS011;7120;52.890;6.040;2022-11-20T16:35:38;23.30;;;16.50;;